sensor_id;sensor_type;location;lat;lon;timestamp;pressure;altitude;pressure_sealevel;temperature;humidity
50632;BME280;49583;45.590;-122.498;2023-03-03T00:00:33;101404.52;;;8.29;61.39
50632;BME280;49583;45.590;-122.498;2023-03-03T00:02:57;101411.83;;;8.27;61.00
50632;BME280;49583;45.590;-122.498;2023-03-03T00:05:14;101411.12;;;8.23;61.11
50632;BME280;49583;45.590;-122.498;2023-03-03T00:07:27;101404.79;;;8.23;61.59
50632;BME280;49583;45.590;-122.498;2023-03-03T00:09:40;101404.98;;;8.25;61.62
50632;BME280;49583;45.590;-122.498;2023-03-03T00:11:56;101402.80;;;8.25;61.58
50632;BME280;49583;45.590;-122.498;2023-03-03T00:14:20;101403.73;;;8.25;61.73
50632;BME280;49583;45.590;-122.498;2023-03-03T00:16:37;101401.02;;;8.25;61.89
50632;BME280;49583;45.590;-122.498;2023-03-03T00:18:50;101399.98;;;8.25;61.99
50632;BME280;49583;45.590;-122.498;2023-03-03T00:21:10;101401.16;;;8.25;62.04
50632;BME280;49583;45.590;-122.498;2023-03-03T00:23:33;101403.86;;;8.30;62.35
50632;BME280;49583;45.590;-122.498;2023-03-03T00:25:48;101408.41;;;8.36;62.65
50632;BME280;49583;45.590;-122.498;2023-03-03T00:28:12;101405.13;;;8.41;62.88
50632;BME280;49583;45.590;-122.498;2023-03-03T00:30:29;101410.04;;;8.45;62.55
50632;BME280;49583;45.590;-122.498;2023-03-03T00:32:45;101408.02;;;8.45;62.55
50632;BME280;49583;45.590;-122.498;2023-03-03T00:35:17;101410.13;;;8.43;62.43
50632;BME280;49583;45.590;-122.498;2023-03-03T00:37:34;101410.74;;;8.41;62.63
50632;BME280;49583;45.590;-122.498;2023-03-03T00:39:48;101413.70;;;8.41;62.74
50632;BME280;49583;45.590;-122.498;2023-03-03T00:42:01;101422.59;;;8.43;63.12
50632;BME280;49583;45.590;-122.498;2023-03-03T00:44:41;101424.34;;;8.44;63.03
50632;BME280;49583;45.590;-122.498;2023-03-03T00:46:54;101432.10;;;8.42;62.95
50632;BME280;49583;45.590;-122.498;2023-03-03T00:49:21;101431.48;;;8.39;62.97
50632;BME280;49583;45.590;-122.498;2023-03-03T00:51:36;101433.32;;;8.37;63.09
50632;BME280;49583;45.590;-122.498;2023-03-03T00:53:49;101435.88;;;8.34;63.36
50632;BME280;49583;45.590;-122.498;2023-03-03T00:56:03;101435.90;;;8.31;63.11
50632;BME280;49583;45.590;-122.498;2023-03-03T00:58:16;101431.89;;;8.27;63.20
50632;BME280;49583;45.590;-122.498;2023-03-03T01:00:31;101428.52;;;8.22;63.37
50632;BME280;49583;45.590;-122.498;2023-03-03T01:02:45;101438.20;;;8.20;63.41
50632;BME280;49583;45.590;-122.498;2023-03-03T01:04:59;101436.23;;;8.18;63.27
50632;BME280;49583;45.590;-122.498;2023-03-03T01:07:12;101435.27;;;8.16;63.42
50632;BME280;49583;45.590;-122.498;2023-03-03T01:09:26;101433.67;;;8.13;63.55
50632;BME280;49583;45.590;-122.498;2023-03-03T01:11:39;101429.77;;;8.10;63.48
50632;BME280;49583;45.590;-122.498;2023-03-03T01:13:52;101429.48;;;8.09;63.59
50632;BME280;49583;45.590;-122.498;2023-03-03T01:16:06;101429.48;;;8.08;63.59
50632;BME280;49583;45.590;-122.498;2023-03-03T01:18:21;101431.65;;;8.06;63.75
50632;BME280;49583;45.590;-122.498;2023-03-03T01:20:34;101434.61;;;8.06;63.57
50632;BME280;49583;45.590;-122.498;2023-03-03T01:22:47;101427.31;;;8.02;63.64
50632;BME280;49583;45.590;-122.498;2023-03-03T01:25:00;101426.48;;;8.01;63.77
50632;BME280;49583;45.590;-122.498;2023-03-03T01:27:14;101430.29;;;7.99;63.89
50632;BME280;49583;45.590;-122.498;2023-03-03T01:29:27;101429.30;;;7.98;63.84
50632;BME280;49583;45.590;-122.498;2023-03-03T01:31:40;101439.94;;;7.97;63.93
50632;BME280;49583;45.590;-122.498;2023-03-03T01:33:53;101454.29;;;7.97;64.11
50632;BME280;49583;45.590;-122.498;2023-03-03T01:36:07;101459.27;;;7.97;64.34
50632;BME280;49583;45.590;-122.498;2023-03-03T01:38:21;101461.98;;;7.97;64.09
50632;BME280;49583;45.590;-122.498;2023-03-03T01:40:34;101467.79;;;7.94;63.66
50632;BME280;49583;45.590;-122.498;2023-03-03T01:42:48;101460.62;;;7.91;63.38
50632;BME280;49583;45.590;-122.498;2023-03-03T01:45:20;101457.72;;;7.87;63.02
50632;BME280;49583;45.590;-122.498;2023-03-03T01:47:34;101460.38;;;7.82;62.82
50632;BME280;49583;45.590;-122.498;2023-03-03T01:49:50;101460.48;;;7.79;62.83
50632;BME280;49583;45.590;-122.498;2023-03-03T01:52:13;101466.98;;;7.75;62.68
50632;BME280;49583;45.590;-122.498;2023-03-03T01:54:33;101470.70;;;7.69;62.70
50632;BME280;49583;45.590;-122.498;2023-03-03T01:56:50;101472.47;;;7.63;62.52
50632;BME280;49583;45.590;-122.498;2023-03-03T01:59:08;101480.20;;;7.59;62.57
50632;BME280;49583;45.590;-122.498;2023-03-03T02:01:26;101484.20;;;7.54;62.63
50632;BME280;49583;45.590;-122.498;2023-03-03T02:03:41;101492.55;;;7.52;62.79
50632;BME280;49583;45.590;-122.498;2023-03-03T02:05:58;101497.34;;;7.47;62.61
50632;BME280;49583;45.590;-122.498;2023-03-03T02:08:15;101497.67;;;7.41;62.72
50632;BME280;49583;45.590;-122.498;2023-03-03T02:10:30;101498.33;;;7.34;62.54
50632;BME280;49583;45.590;-122.498;2023-03-03T02:12:45;101489.34;;;7.30;62.61
50632;BME280;49583;45.590;-122.498;2023-03-03T02:15:00;101494.79;;;7.24;62.63
50632;BME280;49583;45.590;-122.498;2023-03-03T02:17:13;101497.33;;;7.19;62.77
50632;BME280;49583;45.590;-122.498;2023-03-03T02:19:31;101508.82;;;7.16;62.76
50632;BME280;49583;45.590;-122.498;2023-03-03T02:21:47;101505.00;;;7.10;62.84
50632;BME280;49583;45.590;-122.498;2023-03-03T02:24:04;101500.06;;;7.05;62.73
50632;BME280;49583;45.590;-122.498;2023-03-03T02:26:20;101504.59;;;7.02;62.86
50632;BME280;49583;45.590;-122.498;2023-03-03T02:28:38;101511.45;;;6.98;62.90
50632;BME280;49583;45.590;-122.498;2023-03-03T02:30:52;101514.18;;;6.96;63.13
50632;BME280;49583;45.590;-122.498;2023-03-03T02:33:06;101516.45;;;6.95;63.22
50632;BME280;49583;45.590;-122.498;2023-03-03T02:35:30;101515.78;;;6.90;63.21
50632;BME280;49583;45.590;-122.498;2023-03-03T02:37:44;101519.90;;;6.91;63.32
50632;BME280;49583;45.590;-122.498;2023-03-03T02:39:57;101524.29;;;6.90;63.39
50632;BME280;49583;45.590;-122.498;2023-03-03T02:42:15;101529.29;;;6.87;63.39
50632;BME280;49583;45.590;-122.498;2023-03-03T02:44:34;101535.95;;;6.86;63.46
50632;BME280;49583;45.590;-122.498;2023-03-03T02:46:50;101537.06;;;6.85;63.58
50632;BME280;49583;45.590;-122.498;2023-03-03T02:49:03;101539.27;;;6.83;63.57
50632;BME280;49583;45.590;-122.498;2023-03-03T02:51:17;101538.70;;;6.81;63.54
50632;BME280;49583;45.590;-122.498;2023-03-03T02:53:30;101541.05;;;6.76;63.39
50632;BME280;49583;45.590;-122.498;2023-03-03T02:55:43;101542.69;;;6.70;63.43
50632;BME280;49583;45.590;-122.498;2023-03-03T02:57:56;101548.23;;;6.67;63.70
50632;BME280;49583;45.590;-122.498;2023-03-03T03:00:14;101548.64;;;6.64;63.55
50632;BME280;49583;45.590;-122.498;2023-03-03T03:02:27;101550.75;;;6.60;63.78
50632;BME280;49583;45.590;-122.498;2023-03-03T03:04:40;101551.92;;;6.56;63.81
50632;BME280;49583;45.590;-122.498;2023-03-03T03:06:57;101546.91;;;6.54;63.96
50632;BME280;49583;45.590;-122.498;2023-03-03T03:09:14;101551.83;;;6.53;63.89
50632;BME280;49583;45.590;-122.498;2023-03-03T03:11:28;101554.09;;;6.51;64.10
50632;BME280;49583;45.590;-122.498;2023-03-03T03:13:41;101553.45;;;6.51;63.93
50632;BME280;49583;45.590;-122.498;2023-03-03T03:15:55;101555.66;;;6.48;64.04
50632;BME280;49583;45.590;-122.498;2023-03-03T03:18:08;101559.33;;;6.45;63.91
50632;BME280;49583;45.590;-122.498;2023-03-03T03:20:22;101561.84;;;6.40;63.93
50632;BME280;49583;45.590;-122.498;2023-03-03T03:22:35;101556.92;;;6.36;64.05
50632;BME280;49583;45.590;-122.498;2023-03-03T03:24:49;101556.17;;;6.32;64.13
50632;BME280;49583;45.590;-122.498;2023-03-03T03:27:04;101560.40;;;6.30;64.15
50632;BME280;49583;45.590;-122.498;2023-03-03T03:29:17;101577.14;;;6.28;64.12
50632;BME280;49583;45.590;-122.498;2023-03-03T03:31:32;101585.09;;;6.26;64.23
50632;BME280;49583;45.590;-122.498;2023-03-03T03:33:45;101574.84;;;6.25;64.37
50632;BME280;49583;45.590;-122.498;2023-03-03T03:35:58;101560.30;;;6.23;64.33
50632;BME280;49583;45.590;-122.498;2023-03-03T03:38:13;101562.63;;;6.23;64.50
50632;BME280;49583;45.590;-122.498;2023-03-03T03:40:29;101562.29;;;6.24;64.48
50632;BME280;49583;45.590;-122.498;2023-03-03T03:42:42;101561.77;;;6.23;64.55
50632;BME280;49583;45.590;-122.498;2023-03-03T03:44:55;101563.48;;;6.22;64.74
50632;BME280;49583;45.590;-122.498;2023-03-03T03:47:09;101567.14;;;6.21;64.65
50632;BME280;49583;45.590;-122.498;2023-03-03T03:49:22;101572.45;;;6.19;64.63
50632;BME280;49583;45.590;-122.498;2023-03-03T03:51:37;101570.05;;;6.18;64.67
50632;BME280;49583;45.590;-122.498;2023-03-03T03:53:53;101574.13;;;6.16;64.82
50632;BME280;49583;45.590;-122.498;2023-03-03T03:56:07;101580.90;;;6.13;64.60
50632;BME280;49583;45.590;-122.498;2023-03-03T03:58:21;101591.77;;;6.10;64.64
50632;BME280;49583;45.590;-122.498;2023-03-03T04:00:39;101595.48;;;6.07;64.70
50632;BME280;49583;45.590;-122.498;2023-03-03T04:02:53;101593.92;;;6.06;64.88
50632;BME280;49583;45.590;-122.498;2023-03-03T04:05:07;101592.66;;;6.04;64.90
50632;BME280;49583;45.590;-122.498;2023-03-03T04:07:21;101595.70;;;6.02;64.99
50632;BME280;49583;45.590;-122.498;2023-03-03T04:09:35;101597.79;;;6.01;64.84
50632;BME280;49583;45.590;-122.498;2023-03-03T04:11:48;101593.73;;;5.99;64.88
50632;BME280;49583;45.590;-122.498;2023-03-03T04:14:01;101588.84;;;5.96;64.96
50632;BME280;49583;45.590;-122.498;2023-03-03T04:16:15;101593.92;;;5.94;64.87
50632;BME280;49583;45.590;-122.498;2023-03-03T04:18:28;101589.15;;;5.91;64.96
50632;BME280;49583;45.590;-122.498;2023-03-03T04:20:41;101589.85;;;5.91;65.04
50632;BME280;49583;45.590;-122.498;2023-03-03T04:22:55;101585.93;;;5.89;65.23
50632;BME280;49583;45.590;-122.498;2023-03-03T04:25:10;101587.36;;;5.87;65.16
50632;BME280;49583;45.590;-122.498;2023-03-03T04:27:25;101588.91;;;5.85;65.37
50632;BME280;49583;45.590;-122.498;2023-03-03T04:29:38;101592.11;;;5.83;65.29
50632;BME280;49583;45.590;-122.498;2023-03-03T04:31:52;101589.61;;;5.78;64.94
50632;BME280;49583;45.590;-122.498;2023-03-03T04:34:06;101587.70;;;5.76;65.21
50632;BME280;49583;45.590;-122.498;2023-03-03T04:36:20;101590.09;;;5.71;65.30
50632;BME280;49583;45.590;-122.498;2023-03-03T04:38:33;101596.40;;;5.68;65.06
50632;BME280;49583;45.590;-122.498;2023-03-03T04:40:46;101600.27;;;5.65;65.28
50632;BME280;49583;45.590;-122.498;2023-03-03T04:43:00;101604.64;;;5.61;65.22
50632;BME280;49583;45.590;-122.498;2023-03-03T04:45:15;101617.20;;;5.58;65.53
50632;BME280;49583;45.590;-122.498;2023-03-03T04:47:28;101623.46;;;5.56;65.58
50632;BME280;49583;45.590;-122.498;2023-03-03T04:49:42;101623.87;;;5.54;65.69
50632;BME280;49583;45.590;-122.498;2023-03-03T04:51:55;101625.33;;;5.51;65.69
50632;BME280;49583;45.590;-122.498;2023-03-03T04:54:09;101620.68;;;5.48;65.93
50632;BME280;49583;45.590;-122.498;2023-03-03T04:56:22;101620.52;;;5.45;65.90
50632;BME280;49583;45.590;-122.498;2023-03-03T04:58:35;101619.83;;;5.43;66.02
50632;BME280;49583;45.590;-122.498;2023-03-03T05:00:52;101619.28;;;5.41;66.08
50632;BME280;49583;45.590;-122.498;2023-03-03T05:03:06;101618.56;;;5.39;66.21
50632;BME280;49583;45.590;-122.498;2023-03-03T05:05:20;101617.17;;;5.38;66.39
50632;BME280;49583;45.590;-122.498;2023-03-03T05:07:33;101619.90;;;5.37;66.27
50632;BME280;49583;45.590;-122.498;2023-03-03T05:09:46;101617.04;;;5.36;66.21
50632;BME280;49583;45.590;-122.498;2023-03-03T05:11:59;101620.13;;;5.36;66.52
50632;BME280;49583;45.590;-122.498;2023-03-03T05:14:14;101619.27;;;5.36;66.36
50632;BME280;49583;45.590;-122.498;2023-03-03T05:16:27;101624.10;;;5.36;66.52
50632;BME280;49583;45.590;-122.498;2023-03-03T05:18:41;101628.36;;;5.34;66.48
50632;BME280;49583;45.590;-122.498;2023-03-03T05:20:55;101631.35;;;5.32;66.50
50632;BME280;49583;45.590;-122.498;2023-03-03T05:23:10;101631.41;;;5.32;66.51
50632;BME280;49583;45.590;-122.498;2023-03-03T05:25:22;101629.80;;;5.31;66.76
50632;BME280;49583;45.590;-122.498;2023-03-03T05:27:36;101628.55;;;5.31;66.73
50632;BME280;49583;45.590;-122.498;2023-03-03T05:29:49;101629.27;;;5.30;66.86
50632;BME280;49583;45.590;-122.498;2023-03-03T05:32:02;101633.63;;;5.29;66.88
50632;BME280;49583;45.590;-122.498;2023-03-03T05:34:15;101638.56;;;5.30;66.93
50632;BME280;49583;45.590;-122.498;2023-03-03T05:36:28;101646.81;;;5.30;66.98
50632;BME280;49583;45.590;-122.498;2023-03-03T05:38:41;101643.55;;;5.30;66.95
50632;BME280;49583;45.590;-122.498;2023-03-03T05:40:54;101644.48;;;5.30;67.14
50632;BME280;49583;45.590;-122.498;2023-03-03T05:43:07;101646.27;;;5.30;67.00
50632;BME280;49583;45.590;-122.498;2023-03-03T05:45:22;101644.70;;;5.30;67.20
50632;BME280;49583;45.590;-122.498;2023-03-03T05:47:36;101643.99;;;5.30;67.17
50632;BME280;49583;45.590;-122.498;2023-03-03T05:49:49;101642.64;;;5.29;67.18
50632;BME280;49583;45.590;-122.498;2023-03-03T05:52:02;101643.95;;;5.29;67.20
50632;BME280;49583;45.590;-122.498;2023-03-03T05:54:15;101644.52;;;5.27;67.38
50632;BME280;49583;45.590;-122.498;2023-03-03T05:56:28;101649.77;;;5.28;67.31
50632;BME280;49583;45.590;-122.498;2023-03-03T05:58:42;101642.73;;;5.27;67.34
50632;BME280;49583;45.590;-122.498;2023-03-03T06:00:56;101642.98;;;5.28;67.21
50632;BME280;49583;45.590;-122.498;2023-03-03T06:03:09;101643.02;;;5.29;67.49
50632;BME280;49583;45.590;-122.498;2023-03-03T06:05:22;101643.27;;;5.28;67.30
50632;BME280;49583;45.590;-122.498;2023-03-03T06:07:35;101640.57;;;5.25;67.48
50632;BME280;49583;45.590;-122.498;2023-03-03T06:09:48;101641.61;;;5.24;67.45
50632;BME280;49583;45.590;-122.498;2023-03-03T06:12:01;101636.55;;;5.21;67.29
50632;BME280;49583;45.590;-122.498;2023-03-03T06:14:13;101642.64;;;5.20;67.19
50632;BME280;49583;45.590;-122.498;2023-03-03T06:16:26;101646.73;;;5.18;67.23
50632;BME280;49583;45.590;-122.498;2023-03-03T06:18:40;101653.10;;;5.16;67.37
50632;BME280;49583;45.590;-122.498;2023-03-03T06:20:55;101657.48;;;5.14;67.26
50632;BME280;49583;45.590;-122.498;2023-03-03T06:23:08;101658.64;;;5.12;67.40
50632;BME280;49583;45.590;-122.498;2023-03-03T06:25:21;101659.74;;;5.10;67.18
50632;BME280;49583;45.590;-122.498;2023-03-03T06:27:34;101661.61;;;5.08;67.73
50632;BME280;49583;45.590;-122.498;2023-03-03T06:29:47;101661.20;;;5.06;67.41
50632;BME280;49583;45.590;-122.498;2023-03-03T06:32:01;101660.29;;;5.03;67.43
50632;BME280;49583;45.590;-122.498;2023-03-03T06:34:14;101656.73;;;5.00;67.83
50632;BME280;49583;45.590;-122.498;2023-03-03T06:36:27;101649.77;;;4.98;67.70
50632;BME280;49583;45.590;-122.498;2023-03-03T06:38:41;101649.33;;;4.96;67.78
50632;BME280;49583;45.590;-122.498;2023-03-03T06:40:55;101645.33;;;4.93;67.57
50632;BME280;49583;45.590;-122.498;2023-03-03T06:43:08;101643.25;;;4.89;67.73
50632;BME280;49583;45.590;-122.498;2023-03-03T06:45:23;101642.73;;;4.84;67.57
50632;BME280;49583;45.590;-122.498;2023-03-03T06:47:37;101641.30;;;4.80;67.38
50632;BME280;49583;45.590;-122.498;2023-03-03T06:49:49;101637.73;;;4.75;67.88
50632;BME280;49583;45.590;-122.498;2023-03-03T06:52:09;101633.59;;;4.70;67.60
50632;BME280;49583;45.590;-122.498;2023-03-03T06:54:26;101638.96;;;4.66;67.59
50632;BME280;49583;45.590;-122.498;2023-03-03T06:56:40;101642.29;;;4.62;67.70
50632;BME280;49583;45.590;-122.498;2023-03-03T06:58:55;101644.22;;;4.60;67.71
50632;BME280;49583;45.590;-122.498;2023-03-03T07:01:16;101639.02;;;4.59;68.00
50632;BME280;49583;45.590;-122.498;2023-03-03T07:03:32;101638.24;;;4.56;67.82
50632;BME280;49583;45.590;-122.498;2023-03-03T07:05:46;101638.95;;;4.53;67.92
50632;BME280;49583;45.590;-122.498;2023-03-03T07:08:00;101638.88;;;4.49;67.70
50632;BME280;49583;45.590;-122.498;2023-03-03T07:10:22;101641.48;;;4.45;68.02
50632;BME280;49583;45.590;-122.498;2023-03-03T07:12:36;101642.58;;;4.41;67.65
50632;BME280;49583;45.590;-122.498;2023-03-03T07:14:52;101647.46;;;4.36;68.06
50632;BME280;49583;45.590;-122.498;2023-03-03T07:17:13;101647.90;;;4.33;67.94
50632;BME280;49583;45.590;-122.498;2023-03-03T07:19:32;101646.14;;;4.31;68.31
50632;BME280;49583;45.590;-122.498;2023-03-03T07:21:46;101644.75;;;4.28;68.33
50632;BME280;49583;45.590;-122.498;2023-03-03T07:24:00;101643.45;;;4.28;68.16
50632;BME280;49583;45.590;-122.498;2023-03-03T07:26:15;101644.65;;;4.28;68.47
50632;BME280;49583;45.590;-122.498;2023-03-03T07:28:29;101642.74;;;4.29;68.43
50632;BME280;49583;45.590;-122.498;2023-03-03T07:30:44;101638.88;;;4.30;68.55
50632;BME280;49583;45.590;-122.498;2023-03-03T07:32:58;101636.38;;;4.31;68.54
50632;BME280;49583;45.590;-122.498;2023-03-03T07:35:28;101639.91;;;4.30;68.84
50632;BME280;49583;45.590;-122.498;2023-03-03T07:37:43;101636.54;;;4.31;68.90
50632;BME280;49583;45.590;-122.498;2023-03-03T07:39:57;101637.40;;;4.31;68.94
50632;BME280;49583;45.590;-122.498;2023-03-03T07:42:27;101642.06;;;4.31;68.96
50632;BME280;49583;45.590;-122.498;2023-03-03T07:44:56;101644.39;;;4.31;69.09
50632;BME280;49583;45.590;-122.498;2023-03-03T07:47:21;101645.20;;;4.32;69.09
50632;BME280;49583;45.590;-122.498;2023-03-03T07:49:37;101640.34;;;4.31;69.14
50632;BME280;49583;45.590;-122.498;2023-03-03T07:51:54;101641.15;;;4.30;69.03
50632;BME280;49583;45.590;-122.498;2023-03-03T07:54:30;101636.30;;;4.28;69.22
50632;BME280;49583;45.590;-122.498;2023-03-03T07:56:48;101638.41;;;4.28;69.20
50632;BME280;49583;45.590;-122.498;2023-03-03T07:59:01;101636.89;;;4.25;69.14
50632;BME280;49583;45.590;-122.498;2023-03-03T08:01:41;101628.64;;;4.21;69.22
50632;BME280;49583;45.590;-122.498;2023-03-03T08:03:55;101629.91;;;4.19;69.50
50632;BME280;49583;45.590;-122.498;2023-03-03T08:06:34;101630.48;;;4.18;69.55
50632;BME280;49583;45.590;-122.498;2023-03-03T08:08:48;101636.85;;;4.17;69.37
50632;BME280;49583;45.590;-122.498;2023-03-03T08:11:01;101643.03;;;4.17;69.58
50632;BME280;49583;45.590;-122.498;2023-03-03T08:13:20;101644.07;;;4.16;69.62
50632;BME280;49583;45.590;-122.498;2023-03-03T08:15:38;101650.09;;;4.16;69.65
50632;BME280;49583;45.590;-122.498;2023-03-03T08:17:56;101647.67;;;4.14;69.71
50632;BME280;49583;45.590;-122.498;2023-03-03T08:23:00;101644.96;;;4.10;69.73
50632;BME280;49583;45.590;-122.498;2023-03-03T08:25:13;101644.95;;;4.08;69.82
50632;BME280;49583;45.590;-122.498;2023-03-03T08:27:29;101648.16;;;4.06;70.08
50632;BME280;49583;45.590;-122.498;2023-03-03T08:29:41;101654.84;;;4.05;70.22
50632;BME280;49583;45.590;-122.498;2023-03-03T08:31:56;101660.85;;;4.05;70.07
50632;BME280;49583;45.590;-122.498;2023-03-03T08:34:10;101663.45;;;4.05;70.10
50632;BME280;49583;45.590;-122.498;2023-03-03T08:36:23;101666.64;;;4.07;70.09
50632;BME280;49583;45.590;-122.498;2023-03-03T08:38:36;101667.48;;;4.08;70.23
50632;BME280;49583;45.590;-122.498;2023-03-03T08:40:50;101671.33;;;4.09;70.28
50632;BME280;49583;45.590;-122.498;2023-03-03T08:43:04;101668.84;;;4.10;70.46
50632;BME280;49583;45.590;-122.498;2023-03-03T08:45:17;101668.45;;;4.08;70.22
50632;BME280;49583;45.590;-122.498;2023-03-03T08:47:30;101673.34;;;4.09;70.50
50632;BME280;49583;45.590;-122.498;2023-03-03T08:49:43;101671.02;;;4.06;70.32
50632;BME280;49583;45.590;-122.498;2023-03-03T08:51:56;101678.25;;;4.06;70.25
50632;BME280;49583;45.590;-122.498;2023-03-03T08:54:10;101674.89;;;4.04;70.54
50632;BME280;49583;45.590;-122.498;2023-03-03T08:56:23;101677.27;;;4.02;70.44
50632;BME280;49583;45.590;-122.498;2023-03-03T08:58:38;101680.77;;;4.01;70.63
50632;BME280;49583;45.590;-122.498;2023-03-03T09:01:12;101678.29;;;3.99;70.59
50632;BME280;49583;45.590;-122.498;2023-03-03T09:03:25;101675.20;;;3.99;70.73
50632;BME280;49583;45.590;-122.498;2023-03-03T09:05:40;101676.89;;;3.98;70.52
50632;BME280;49583;45.590;-122.498;2023-03-03T09:07:54;101674.64;;;3.95;70.80
50632;BME280;49583;45.590;-122.498;2023-03-03T09:10:08;101678.84;;;3.94;70.67
50632;BME280;49583;45.590;-122.498;2023-03-03T09:12:27;101676.25;;;3.93;70.96
50632;BME280;49583;45.590;-122.498;2023-03-03T09:14:41;101676.27;;;3.91;70.87
50632;BME280;49583;45.590;-122.498;2023-03-03T09:16:55;101671.34;;;3.87;71.06
50632;BME280;49583;45.590;-122.498;2023-03-03T09:19:23;101668.57;;;3.82;70.91
50632;BME280;49583;45.590;-122.498;2023-03-03T09:21:36;101669.52;;;3.84;71.07
50632;BME280;49583;45.590;-122.498;2023-03-03T09:23:54;101666.88;;;3.83;70.81
50632;BME280;49583;45.590;-122.498;2023-03-03T09:26:23;101669.16;;;3.82;70.99
50632;BME280;49583;45.590;-122.498;2023-03-03T09:28:38;101673.46;;;3.80;71.07
50632;BME280;49583;45.590;-122.498;2023-03-03T09:30:52;101675.93;;;3.79;71.21
50632;BME280;49583;45.590;-122.498;2023-03-03T09:33:22;101671.51;;;3.77;71.29
50632;BME280;49583;45.590;-122.498;2023-03-03T09:35:39;101673.69;;;3.76;71.13
50632;BME280;49583;45.590;-122.498;2023-03-03T09:37:52;101671.11;;;3.74;71.25
50632;BME280;49583;45.590;-122.498;2023-03-03T09:40:25;101671.40;;;3.72;71.39
50632;BME280;49583;45.590;-122.498;2023-03-03T09:42:53;101674.73;;;3.71;71.21
50632;BME280;49583;45.590;-122.498;2023-03-03T09:45:26;101669.81;;;3.69;71.38
50632;BME280;49583;45.590;-122.498;2023-03-03T09:47:58;101661.27;;;3.67;71.17
50632;BME280;49583;45.590;-122.498;2023-03-03T09:50:24;101658.00;;;3.64;71.29
50632;BME280;49583;45.590;-122.498;2023-03-03T09:52:47;101657.23;;;3.62;71.56
50632;BME280;49583;45.590;-122.498;2023-03-03T09:55:16;101662.11;;;3.62;71.40
50632;BME280;49583;45.590;-122.498;2023-03-03T09:57:46;101660.64;;;3.62;71.49
50632;BME280;49583;45.590;-122.498;2023-03-03T10:00:39;101657.95;;;3.60;71.48
50632;BME280;49583;45.590;-122.498;2023-03-03T10:05:27;101660.17;;;3.59;71.73
50632;BME280;49583;45.590;-122.498;2023-03-03T10:07:47;101656.34;;;3.59;71.58
50632;BME280;49583;45.590;-122.498;2023-03-03T10:13:00;101658.39;;;3.54;71.60
50632;BME280;49583;45.590;-122.498;2023-03-03T10:15:26;101661.77;;;3.53;71.54
50632;BME280;49583;45.590;-122.498;2023-03-03T10:17:50;101665.84;;;3.51;71.54
50632;BME280;49583;45.590;-122.498;2023-03-03T10:20:19;101669.10;;;3.49;71.81
50632;BME280;49583;45.590;-122.498;2023-03-03T10:22:46;101669.75;;;3.46;71.91
50632;BME280;49583;45.590;-122.498;2023-03-03T10:25:12;101668.17;;;3.46;71.95
50632;BME280;49583;45.590;-122.498;2023-03-03T10:27:49;101666.73;;;3.44;71.94
50632;BME280;49583;45.590;-122.498;2023-03-03T10:30:09;101659.27;;;3.44;72.22
50632;BME280;49583;45.590;-122.498;2023-03-03T10:32:34;101660.77;;;3.44;72.14
50632;BME280;49583;45.590;-122.498;2023-03-03T10:35:01;101665.38;;;3.44;72.29
50632;BME280;49583;45.590;-122.498;2023-03-03T10:37:23;101665.60;;;3.44;72.27
50632;BME280;49583;45.590;-122.498;2023-03-03T10:39:57;101662.14;;;3.43;72.32
50632;BME280;49583;45.590;-122.498;2023-03-03T10:42:23;101658.45;;;3.43;72.62
50632;BME280;49583;45.590;-122.498;2023-03-03T10:44:52;101645.35;;;3.43;72.58
50632;BME280;49583;45.590;-122.498;2023-03-03T10:47:35;101650.70;;;3.40;72.55
50632;BME280;49583;45.590;-122.498;2023-03-03T10:49:59;101658.78;;;3.40;72.67
50632;BME280;49583;45.590;-122.498;2023-03-03T10:52:43;101663.01;;;3.39;72.76
50632;BME280;49583;45.590;-122.498;2023-03-03T10:55:16;101669.28;;;3.39;72.61
50632;BME280;49583;45.590;-122.498;2023-03-03T10:57:38;101668.64;;;3.39;72.84
50632;BME280;49583;45.590;-122.498;2023-03-03T11:00:06;101665.73;;;3.38;72.89
50632;BME280;49583;45.590;-122.498;2023-03-03T11:02:25;101664.67;;;3.40;72.94
50632;BME280;49583;45.590;-122.498;2023-03-03T11:04:54;101666.30;;;3.40;72.99
50632;BME280;49583;45.590;-122.498;2023-03-03T11:07:15;101663.19;;;3.41;72.94
50632;BME280;49583;45.590;-122.498;2023-03-03T11:09:51;101663.48;;;3.42;73.05
50632;BME280;49583;45.590;-122.498;2023-03-03T11:12:21;101663.36;;;3.45;73.06
50632;BME280;49583;45.590;-122.498;2023-03-03T11:14:42;101665.90;;;3.47;73.03
50632;BME280;49583;45.590;-122.498;2023-03-03T11:17:03;101664.46;;;3.48;73.03
50632;BME280;49583;45.590;-122.498;2023-03-03T11:19:33;101663.67;;;3.51;72.88
50632;BME280;49583;45.590;-122.498;2023-03-03T11:21:54;101659.24;;;3.49;73.16
50632;BME280;49583;45.590;-122.498;2023-03-03T11:24:22;101656.47;;;3.47;73.07
50632;BME280;49583;45.590;-122.498;2023-03-03T11:26:59;101657.93;;;3.47;73.02
50632;BME280;49583;45.590;-122.498;2023-03-03T11:31:55;101654.38;;;3.46;73.07
50632;BME280;49583;45.590;-122.498;2023-03-03T11:34:16;101651.50;;;3.45;73.16
50632;BME280;49583;45.590;-122.498;2023-03-03T11:36:36;101653.02;;;3.46;73.14
50632;BME280;49583;45.590;-122.498;2023-03-03T11:38:55;101654.25;;;3.47;73.29
50632;BME280;49583;45.590;-122.498;2023-03-03T11:41:20;101653.52;;;3.48;73.15
50632;BME280;49583;45.590;-122.498;2023-03-03T11:43:40;101650.31;;;3.49;73.31
50632;BME280;49583;45.590;-122.498;2023-03-03T11:45:57;101649.92;;;3.47;73.31
50632;BME280;49583;45.590;-122.498;2023-03-03T11:48:15;101639.58;;;3.47;73.37
50632;BME280;49583;45.590;-122.498;2023-03-03T11:50:34;101639.27;;;3.46;73.25